Time;durP1;ratioP1;P1;durP2;ratioP2;P2;SDS_P1;SDS_P2;PMS_P1;PMS_P2;Temp;Humidity;BMP_temperature;BMP_pressure;BME280_temperature;BME280_humidity;BME280_pressure;Samples;Min_cycle;Max_cycle;Signal;HPM_P1;HPM_P2
2022/10/15 00:02:06;;;;;;;133.45;65.00;;;11.10;99.90;;;;;;7371429;19;20022;-38
2022/10/15 00:04:33;;;;;;;157.57;67.95;;;11.20;99.90;;;;;;7370623;19;20051;-38
2022/10/15 00:06:59;;;;;;;169.10;71.35;;;11.30;99.90;;;;;;7374643;19;20720;-38
2022/10/15 00:09:25;;;;;;;139.60;69.53;;;11.30;99.90;;;;;;7372137;19;20507;-38
2022/10/15 00:11:51;;;;;;;166.85;71.97;;;11.40;99.90;;;;;;7375922;19;20417;-38
2022/10/15 00:14:18;;;;;;;198.75;79.25;;;11.40;99.90;;;;;;7370043;19;20022;-39
2022/10/15 00:16:45;;;;;;;179.07;74.07;;;11.40;99.90;;;;;;7372241;19;20025;-44
2022/10/15 00:19:12;;;;;;;241.90;84.07;;;11.40;99.90;;;;;;7375426;19;20021;-38
2022/10/15 00:21:38;;;;;;;245.55;87.93;;;11.40;99.90;;;;;;7375813;19;20043;-38
2022/10/15 00:24:05;;;;;;;260.67;87.10;;;11.50;99.90;;;;;;7375504;19;20019;-39
2022/10/15 00:26:31;;;;;;;282.88;89.70;;;11.50;99.90;;;;;;7369316;19;20022;-39
2022/10/15 00:29:01;;;;;;;201.52;79.32;;;11.50;99.90;;;;;;7373168;19;20022;-38
2022/10/15 00:31:29;;;;;;;210.25;82.88;;;11.50;99.90;;;;;;7374459;19;20497;-38
2022/10/15 00:33:58;;;;;;;189.93;81.78;;;11.50;99.90;;;;;;7372928;19;20014;-38
2022/10/15 00:36:27;;;;;;;231.25;84.80;;;11.50;99.90;;;;;;7372000;19;20078;-39
2022/10/15 00:38:55;;;;;;;207.77;82.40;;;11.50;99.90;;;;;;7372841;19;20022;-39
2022/10/15 00:41:30;;;;;;;234.02;87.75;;;11.50;99.90;;;;;;7374264;19;20035;-39
2022/10/15 00:43:59;;;;;;;187.90;81.22;;;11.50;99.90;;;;;;7372105;19;20543;-40
2022/10/15 00:46:30;;;;;;;195.95;85.05;;;11.50;99.90;;;;;;7369675;19;20014;-38
2022/10/15 00:49:22;;;;;;;214.55;83.68;;;11.50;99.90;;;;;;7374908;19;20030;-39
2022/10/15 00:51:55;;;;;;;186.32;81.70;;;11.50;99.90;;;;;;7374350;19;20039;-39
2022/10/15 00:54:24;;;;;;;206.95;84.07;;;11.50;99.90;;;;;;7371913;19;20576;-39
2022/10/15 00:56:51;;;;;;;209.07;83.25;;;11.50;99.90;;;;;;7364927;19;20011;-38
2022/10/15 00:59:19;;;;;;;233.60;88.68;;;11.50;99.90;;;;;;7372747;19;20014;-38
2022/10/15 01:01:46;;;;;;;227.07;88.68;;;11.50;99.90;;;;;;7372222;19;20018;-38
2022/10/15 01:04:16;;;;;;;222.77;86.50;;;11.50;99.90;;;;;;7374242;19;20640;-39
2022/10/15 01:06:42;;;;;;;182.10;80.60;;;11.50;99.90;;;;;;7369324;19;20054;-39
2022/10/15 01:09:09;;;;;;;171.02;77.90;;;11.50;99.90;;;;;;7374907;19;20685;-38
2022/10/15 01:11:43;;;;;;;202.00;83.47;;;11.50;99.90;;;;;;7369887;19;20082;-38
2022/10/15 01:14:28;;;;;;;189.70;81.40;;;11.50;99.90;;;;;;7367404;19;20030;-39
2022/10/15 01:17:20;;;;;;;163.27;75.25;;;11.50;99.90;;;;;;7373421;19;20018;-38
2022/10/15 01:20:20;;;;;;;152.25;76.72;;;11.60;99.90;;;;;;7373833;19;20022;-39
2022/10/15 01:23:07;;;;;;;152.95;74.05;;;11.50;99.90;;;;;;7374680;19;20023;-38
2022/10/15 01:26:05;;;;;;;148.02;75.13;;;11.50;99.90;;;;;;7370687;19;20025;-39
2022/10/15 01:29:07;;;;;;;142.98;71.25;;;11.50;99.90;;;;;;7375377;19;20086;-38
2022/10/15 01:31:45;;;;;;;154.18;71.80;;;11.50;99.90;;;;;;7373099;19;20474;-38
2022/10/15 01:34:25;;;;;;;149.40;70.50;;;11.50;99.90;;;;;;7374112;19;20036;-38
2022/10/15 01:36:58;;;;;;;150.52;73.68;;;11.50;99.90;;;;;;7369961;19;20025;-38
2022/10/15 01:39:36;;;;;;;151.50;71.95;;;11.60;99.90;;;;;;7369389;19;20052;-51
2022/10/15 01:42:18;;;;;;;123.22;69.65;;;11.60;99.90;;;;;;7371182;19;20021;-48
2022/10/15 01:44:50;;;;;;;;;;;11.60;99.90;;;;;;7372762;19;20018;-48
2022/10/15 01:47:39;;;;;;;;;;;11.60;99.90;;;;;;7369799;19;19941;-49
2022/10/15 01:50:09;;;;;;;126.40;65.53;;;11.60;99.90;;;;;;7368871;19;19950;-53
2022/10/15 01:52:39;;;;;;;123.85;66.90;;;11.60;99.90;;;;;;7366306;19;20026;-50
2022/10/15 01:55:10;;;;;;;138.32;69.72;;;11.60;99.90;;;;;;7371816;19;20014;-49
2022/10/15 01:57:39;;;;;;;136.57;66.57;;;11.60;99.90;;;;;;7372413;19;20395;-49
2022/10/15 02:00:07;;;;;;;130.32;67.72;;;11.60;99.90;;;;;;7367421;19;20030;-51
2022/10/15 02:02:40;;;;;;;123.90;63.47;;;11.60;99.90;;;;;;7376152;19;20022;-51
2022/10/15 02:05:26;;;;;;;120.32;64.88;;;11.60;99.90;;;;;;7376665;19;20596;-39
2022/10/15 02:08:15;;;;;;;128.65;65.82;;;11.60;99.90;;;;;;7373883;19;20042;-49
2022/10/15 02:11:20;;;;;;;145.18;68.90;;;11.60;99.90;;;;;;7375854;19;20109;-52
2022/10/15 02:14:00;;;;;;;122.63;62.55;;;11.60;99.90;;;;;;7371248;19;20043;-50
2022/10/15 02:16:29;;;;;;;122.43;63.15;;;11.70;99.90;;;;;;7373200;19;20887;-49
2022/10/15 02:19:05;;;;;;;135.45;63.60;;;11.70;99.90;;;;;;7370826;19;20098;-50
2022/10/15 02:21:50;;;;;;;110.28;61.30;;;11.70;99.90;;;;;;7370789;19;20010;-48
2022/10/15 02:24:22;;;;;;;104.63;55.97;;;11.70;99.90;;;;;;7374346;19;20115;-48
2022/10/15 02:26:52;;;;;;;124.10;62.50;;;11.70;99.90;;;;;;7376353;19;20026;-51
2022/10/15 02:29:21;;;;;;;105.07;58.25;;;11.70;99.90;;;;;;7378329;19;20021;-48
2022/10/15 02:31:49;;;;;;;121.78;60.47;;;11.70;99.90;;;;;;7373639;19;20845;-54
2022/10/15 02:34:18;;;;;;;107.18;57.92;;;11.70;99.90;;;;;;7376629;19;20021;-50
2022/10/15 02:36:46;;;;;;;104.00;56.38;;;11.70;99.90;;;;;;7370335;19;21228;-52
2022/10/15 02:39:20;;;;;;;90.15;52.67;;;11.70;99.90;;;;;;7377126;19;20033;-49
2022/10/15 02:41:49;;;;;;;94.63;53.47;;;11.70;99.90;;;;;;7372580;19;20490;-52
2022/10/15 02:44:16;;;;;;;93.72;52.95;;;11.70;99.90;;;;;;7378651;19;20022;-50
2022/10/15 02:46:42;;;;;;;95.00;54.10;;;11.70;99.90;;;;;;7373618;19;20035;-51
2022/10/15 02:49:12;;;;;;;91.00;51.53;;;11.70;99.90;;;;;;7373436;19;21150;-51
2022/10/15 02:51:38;;;;;;;88.82;51.42;;;11.70;99.90;;;;;;7370442;19;20022;-48
2022/10/15 02:54:06;;;;;;;86.97;50.85;;;11.70;99.90;;;;;;7370918;19;20057;-48
2022/10/15 02:56:33;;;;;;;98.57;54.08;;;11.70;99.90;;;;;;7373792;19;20015;-50
2022/10/15 02:59:00;;;;;;;88.45;51.28;;;11.70;99.90;;;;;;7378616;19;20089;-48
2022/10/15 03:01:26;;;;;;;90.05;50.90;;;11.70;99.90;;;;;;7374853;19;20611;-51
2022/10/15 03:03:55;;;;;;;80.95;49.60;;;11.70;99.90;;;;;;7376210;19;20018;-48
2022/10/15 03:06:21;;;;;;;99.00;52.28;;;11.70;99.90;;;;;;7375188;19;20791;-51
2022/10/15 03:08:48;;;;;;;87.72;51.03;;;11.70;99.90;;;;;;7379612;19;20082;-39
2022/10/15 03:11:15;;;;;;;90.63;50.35;;;11.70;99.90;;;;;;7376680;19;20024;-39
2022/10/15 03:13:41;;;;;;;94.93;52.20;;;11.70;99.90;;;;;;7372318;19;20022;-40
2022/10/15 03:16:10;;;;;;;93.90;51.20;;;11.70;99.90;;;;;;7373255;19;20018;-39
2022/10/15 03:18:38;;;;;;;88.63;49.00;;;11.70;99.90;;;;;;7373702;19;20490;-39
2022/10/15 03:21:05;;;;;;;87.88;49.70;;;11.70;99.90;;;;;;7374460;19;20467;-39
2022/10/15 03:23:32;;;;;;;86.20;51.08;;;11.70;99.90;;;;;;7374223;19;20018;-40
2022/10/15 03:26:09;;;;;;;82.57;50.53;;;11.70;99.90;;;;;;7374938;19;20033;-51
2022/10/15 03:28:35;;;;;;;94.22;50.65;;;11.70;99.90;;;;;;7371569;19;20025;-39
2022/10/15 03:31:01;;;;;;;88.20;50.13;;;11.70;99.90;;;;;;7376711;19;20018;-49
2022/10/15 03:33:29;;;;;;;84.38;47.28;;;11.70;99.90;;;;;;7374576;19;20560;-51
2022/10/15 03:35:56;;;;;;;89.47;51.13;;;11.70;99.90;;;;;;7373925;19;20110;-48
2022/10/15 03:38:23;;;;;;;82.88;49.00;;;11.70;99.90;;;;;;7371489;19;20018;-50
2022/10/15 03:40:51;;;;;;;88.90;50.08;;;11.70;99.90;;;;;;7376089;19;20873;-48
2022/10/15 03:43:28;;;;;;;80.75;49.17;;;11.70;99.90;;;;;;7371059;19;20360;-52
2022/10/15 03:46:03;;;;;;;92.10;50.93;;;11.60;99.90;;;;;;7374723;19;20014;-48
2022/10/15 03:48:31;;;;;;;83.10;50.35;;;11.70;99.90;;;;;;7373877;19;21275;-49
2022/10/15 03:50:57;;;;;;;86.75;50.53;;;11.60;99.90;;;;;;7374862;19;20019;-48
2022/10/15 03:53:24;;;;;;;92.68;51.17;;;11.60;99.90;;;;;;7372083;19;20478;-49
2022/10/15 03:55:50;;;;;;;85.10;49.70;;;11.60;99.90;;;;;;7370604;19;20071;-38
2022/10/15 03:58:17;;;;;;;86.15;50.95;;;11.60;99.90;;;;;;7372678;19;20099;-49
2022/10/15 04:00:51;;;;;;;86.70;52.03;;;11.60;99.90;;;;;;7375365;19;20455;-47
2022/10/15 04:03:17;;;;;;;95.25;53.35;;;11.60;99.90;;;;;;7374300;19;20030;-49
2022/10/15 04:05:50;;;;;;;91.93;53.17;;;11.60;99.90;;;;;;7377398;19;20022;-38
2022/10/15 04:08:17;;;;;;;92.03;55.22;;;11.60;99.90;;;;;;7375039;19;20018;-39
2022/10/15 04:10:43;;;;;;;94.43;56.10;;;11.60;99.90;;;;;;7373984;19;20138;-48
2022/10/15 04:13:09;;;;;;;99.03;57.08;;;11.50;99.90;;;;;;7371185;19;20817;-40
2022/10/15 04:15:40;;;;;;;105.43;59.03;;;11.50;99.90;;;;;;7373498;19;20026;-54
2022/10/15 04:18:10;;;;;;;105.35;59.03;;;11.50;99.90;;;;;;7374743;19;20030;-50
2022/10/15 04:20:37;;;;;;;97.05;58.03;;;11.50;99.90;;;;;;7371348;19;20010;-48
2022/10/15 04:23:11;;;;;;;107.93;60.03;;;11.40;99.90;;;;;;7371665;19;20462;-48
2022/10/15 04:25:40;;;;;;;102.60;58.72;;;11.40;99.90;;;;;;7370319;19;20015;-50
2022/10/15 04:28:07;;;;;;;92.63;55.15;;;11.40;99.90;;;;;;7370647;19;20042;-39
2022/10/15 04:30:36;;;;;;;101.72;57.72;;;11.30;99.90;;;;;;7371215;19;20022;-39
2022/10/15 04:33:05;;;;;;;109.50;60.33;;;11.30;99.90;;;;;;7370048;19;20022;-48
2022/10/15 04:35:33;;;;;;;101.93;56.92;;;11.20;99.90;;;;;;7369800;19;20808;-51
2022/10/15 04:38:22;;;;;;;98.60;58.25;;;11.10;99.90;;;;;;7373488;19;20033;-48
2022/10/15 04:41:07;;;;;;;109.95;62.05;;;11.10;99.90;;;;;;7366720;19;20014;-48
2022/10/15 04:43:52;;;;;;;112.97;60.97;;;11.00;99.90;;;;;;7366996;19;20022;-48
2022/10/15 04:46:21;;;;;;;118.07;59.95;;;11.00;99.90;;;;;;7371168;19;20389;-47
2022/10/15 04:48:48;;;;;;;111.63;59.22;;;10.90;99.90;;;;;;7370798;19;20018;-47
2022/10/15 04:51:17;;;;;;;108.32;59.63;;;10.90;99.90;;;;;;7371133;19;20450;-52
2022/10/15 04:54:00;;;;;;;117.82;61.33;;;10.90;99.90;;;;;;7372128;19;20023;-48
2022/10/15 04:56:28;;;;;;;118.13;63.15;;;10.80;99.90;;;;;;7372653;19;20596;-47
2022/10/15 04:58:55;;;;;;;109.75;61.58;;;10.80;99.90;;;;;;7365942;19;20038;-52
2022/10/15 05:01:23;;;;;;;120.40;63.45;;;10.80;99.90;;;;;;7373323;19;20028;-51
2022/10/15 05:04:00;;;;;;;118.57;63.97;;;10.80;99.90;;;;;;7370949;19;20022;-49
2022/10/15 05:06:28;;;;;;;120.72;64.30;;;10.80;99.90;;;;;;7372221;19;20281;-51
2022/10/15 05:09:00;;;;;;;130.40;65.65;;;10.80;99.90;;;;;;7371423;19;20632;-51
2022/10/15 05:11:30;;;;;;;122.95;64.25;;;10.80;99.90;;;;;;7374037;19;20011;-51
2022/10/15 05:13:57;;;;;;;122.10;65.22;;;10.80;99.90;;;;;;7372228;19;20018;-39
2022/10/15 05:16:27;;;;;;;130.73;66.32;;;10.80;99.90;;;;;;7371945;19;20608;-39
2022/10/15 05:19:05;;;;;;;125.72;66.32;;;10.80;99.90;;;;;;7370820;19;20460;-38
2022/10/15 05:21:34;;;;;;;132.82;65.18;;;10.80;99.90;;;;;;7373877;19;20023;-39
2022/10/15 05:24:04;;;;;;;132.65;65.57;;;10.80;99.90;;;;;;7369639;19;20019;-39
2022/10/15 05:26:52;;;;;;;139.73;68.57;;;10.90;99.90;;;;;;7368052;19;20078;-49
2022/10/15 05:29:20;;;;;;;130.43;63.42;;;10.90;99.90;;;;;;7370220;19;20413;-52
2022/10/15 05:31:49;;;;;;;132.80;64.60;;;10.90;99.90;;;;;;7372118;19;20022;-50
2022/10/15 05:34:20;;;;;;;127.38;64.88;;;10.90;99.90;;;;;;7367486;19;20020;-52
2022/10/15 05:36:52;;;;;;;146.50;70.68;;;10.90;99.90;;;;;;7370417;19;20474;-50
2022/10/15 05:39:19;;;;;;;144.52;70.20;;;10.90;99.90;;;;;;7367112;19;20390;-48
2022/10/15 05:41:45;;;;;;;152.52;70.72;;;10.90;99.90;;;;;;7365919;19;20577;-56
2022/10/15 05:44:14;;;;;;;152.23;68.63;;;11.00;99.90;;;;;;7369468;19;20085;-51
2022/10/15 05:46:41;;;;;;;144.50;67.53;;;11.00;99.90;;;;;;7369801;19;20014;-51
2022/10/15 05:49:09;;;;;;;176.18;73.15;;;11.00;99.90;;;;;;7368016;19;20018;-50
2022/10/15 05:51:46;;;;;;;136.50;68.03;;;11.00;99.90;;;;;;7369049;19;20545;-48
2022/10/15 05:54:19;;;;;;;156.13;71.43;;;11.10;99.90;;;;;;7367792;19;20030;-51
2022/10/15 05:56:45;;;;;;;164.00;70.93;;;11.10;99.90;;;;;;7369948;19;20026;-48
2022/10/15 05:59:12;;;;;;;147.13;71.68;;;11.10;99.90;;;;;;7368407;19;20010;-51
2022/10/15 06:01:38;;;;;;;158.38;74.47;;;11.10;99.90;;;;;;7371609;19;20023;-49
2022/10/15 06:04:05;;;;;;;147.18;70.70;;;11.20;99.90;;;;;;7373410;19;20117;-48
2022/10/15 06:06:32;;;;;;;151.02;73.13;;;11.20;99.90;;;;;;7372142;19;20350;-48
2022/10/15 06:09:00;;;;;;;136.50;70.53;;;11.20;99.90;;;;;;7372198;19;20015;-50
2022/10/15 06:11:27;;;;;;;147.13;73.38;;;11.30;99.90;;;;;;7369502;19;20019;-49
2022/10/15 06:13:53;;;;;;;144.68;71.40;;;11.30;99.90;;;;;;7369021;19;20022;-48
2022/10/15 06:16:19;;;;;;;150.27;75.05;;;11.30;99.90;;;;;;7373569;19;20053;-50
2022/10/15 06:18:46;;;;;;;153.45;74.75;;;11.40;99.90;;;;;;7370177;19;20015;-51
2022/10/15 06:21:12;;;;;;;144.70;72.93;;;11.40;99.90;;;;;;7370657;19;20014;-48
2022/10/15 06:23:39;;;;;;;135.38;70.32;;;11.40;99.90;;;;;;7370222;19;20029;-48
2022/10/15 06:26:07;;;;;;;145.77;73.90;;;11.40;99.90;;;;;;7370456;19;20031;-49
2022/10/15 06:28:35;;;;;;;136.52;73.20;;;11.50;99.90;;;;;;7369812;19;20043;-51
2022/10/15 06:31:02;;;;;;;143.63;73.78;;;11.50;99.90;;;;;;7373489;19;20825;-49
2022/10/15 06:33:30;;;;;;;145.85;72.25;;;11.50;99.90;;;;;;7371818;19;20059;-39
2022/10/15 06:36:02;;;;;;;137.20;72.72;;;11.60;99.90;;;;;;7367471;19;20022;-38
2022/10/15 06:38:29;;;;;;;137.48;72.43;;;11.60;99.90;;;;;;7366667;19;20026;-39
2022/10/15 06:40:56;;;;;;;145.02;73.82;;;11.60;99.90;;;;;;7360991;19;20033;-39
2022/10/15 06:43:22;;;;;;;125.40;70.75;;;11.60;99.90;;;;;;7367189;19;20023;-39
2022/10/15 06:45:50;;;;;;;121.35;68.78;;;11.70;99.90;;;;;;7371455;19;20589;-39
2022/10/15 06:48:17;;;;;;;131.63;68.82;;;11.70;99.90;;;;;;7370402;19;20382;-39
2022/10/15 06:50:43;;;;;;;124.72;69.85;;;11.80;99.90;;;;;;7378067;19;20507;-40
2022/10/15 06:53:15;;;;;;;125.20;67.78;;;11.80;99.90;;;;;;7379958;19;20710;-39
2022/10/15 06:55:42;;;;;;;134.88;73.63;;;11.90;99.90;;;;;;7374974;19;20026;-39
2022/10/15 06:58:09;;;;;;;176.43;128.52;;;11.90;99.90;;;;;;7375471;19;20358;-39
2022/10/15 07:00:35;;;;;;;141.20;78.15;;;12.00;99.90;;;;;;7374123;19;20592;-43
2022/10/15 07:03:05;;;;;;;119.03;70.68;;;12.10;99.90;;;;;;7377355;19;20528;-43
2022/10/15 07:05:33;;;;;;;122.38;68.65;;;12.20;99.90;;;;;;7373857;19;20019;-50
2022/10/15 07:08:00;;;;;;;107.03;63.95;;;12.20;99.90;;;;;;7376461;19;20022;-52
2022/10/15 07:10:31;;;;;;;109.75;63.40;;;12.30;99.90;;;;;;7372289;19;20094;-53
2022/10/15 07:13:01;;;;;;;118.53;65.15;;;12.40;99.90;;;;;;7374751;19;20400;-51
2022/10/15 07:15:28;;;;;;;118.60;63.20;;;12.50;99.90;;;;;;7374928;19;20392;-51
2022/10/15 07:17:56;;;;;;;101.70;61.33;;;12.50;99.90;;;;;;7376804;19;20026;-54
2022/10/15 07:20:23;;;;;;;84.53;57.92;;;12.50;99.90;;;;;;7373091;19;20018;-41
2022/10/15 07:22:49;;;;;;;116.82;63.03;;;12.60;99.90;;;;;;7375010;19;20022;-41
2022/10/15 07:25:16;;;;;;;106.90;63.40;;;12.70;99.90;;;;;;7375446;19;20359;-44
2022/10/15 07:27:44;;;;;;;92.28;58.63;;;12.90;99.90;;;;;;7377550;19;20018;-43
2022/10/15 07:30:11;;;;;;;89.40;57.45;;;12.90;99.90;;;;;;7374990;19;20019;-43
2022/10/15 07:32:37;;;;;;;87.28;56.80;;;13.00;99.90;;;;;;7374797;19;20039;-41
2022/10/15 07:35:04;;;;;;;88.75;55.72;;;13.00;99.90;;;;;;7376409;19;20022;-41
2022/10/15 07:37:31;;;;;;;94.20;56.92;;;13.00;99.90;;;;;;7376984;19;20513;-42
2022/10/15 07:39:58;;;;;;;84.28;55.08;;;13.00;99.90;;;;;;7372634;19;20047;-41
2022/10/15 07:42:24;;;;;;;84.78;54.03;;;13.00;99.90;;;;;;7376623;19;20507;-44
2022/10/15 07:44:51;;;;;;;79.47;53.38;;;13.00;99.90;;;;;;7374136;19;20014;-43
2022/10/15 07:47:18;;;;;;;77.28;52.13;;;13.00;99.90;;;;;;7373337;19;20419;-42
2022/10/15 07:49:45;;;;;;;78.38;53.15;;;13.00;99.90;;;;;;7379471;19;20815;-44
2022/10/15 07:52:11;;;;;;;77.47;53.55;;;13.00;99.90;;;;;;7376455;19;20022;-46
2022/10/15 07:54:38;;;;;;;84.30;54.75;;;13.00;99.90;;;;;;7374971;19;20011;-42
2022/10/15 07:57:05;;;;;;;84.78;54.05;;;13.10;99.90;;;;;;7375729;19;20070;-43
2022/10/15 07:59:33;;;;;;;83.88;57.63;;;13.10;99.90;;;;;;7374096;19;20015;-45
2022/10/15 08:01:59;;;;;;;79.35;54.92;;;13.20;99.90;;;;;;7374936;19;20014;-41
2022/10/15 08:04:26;;;;;;;74.95;53.75;;;13.50;99.90;;;;;;7372592;19;20014;-43
2022/10/15 08:06:52;;;;;;;71.30;52.92;;;13.70;99.90;;;;;;7372612;19;20019;-50
2022/10/15 08:09:19;;;;;;;63.08;49.55;;;13.80;99.90;;;;;;7369972;19;20403;-49
2022/10/15 08:11:45;;;;;;;59.17;48.25;;;14.00;99.90;;;;;;7373524;19;20482;-50
2022/10/15 08:14:13;;;;;;;57.65;46.35;;;14.00;99.90;;;;;;7372479;19;20066;-52
2022/10/15 08:16:40;;;;;;;62.47;48.10;;;14.20;99.90;;;;;;7375292;19;20022;-51
2022/10/15 08:19:06;;;;;;;58.90;45.92;;;14.20;99.90;;;;;;7373412;19;20446;-49
2022/10/15 08:21:33;;;;;;;61.28;47.55;;;14.10;99.90;;;;;;7369831;19;20143;-49
2022/10/15 08:24:00;;;;;;;53.42;46.47;;;14.10;99.90;;;;;;7365267;19;20025;-52
2022/10/15 08:26:33;;;;;;;52.85;45.63;;;14.10;99.90;;;;;;7369897;19;20026;-53
2022/10/15 08:29:00;;;;;;;59.53;46.83;;;14.20;99.90;;;;;;7367343;19;20026;-51
2022/10/15 08:31:27;;;;;;;57.35;47.55;;;14.10;99.90;;;;;;7366683;19;20015;-49
2022/10/15 08:33:53;;;;;;;60.25;48.35;;;14.00;99.90;;;;;;7366191;19;20018;-52
2022/10/15 08:36:19;;;;;;;60.35;49.13;;;14.00;99.90;;;;;;7364266;19;20035;-52
2022/10/15 08:38:47;;;;;;;60.50;47.20;;;14.00;99.90;;;;;;7367581;19;20029;-48
2022/10/15 08:41:25;;;;;;;62.47;49.40;;;14.00;99.90;;;;;;7368275;19;20485;-49
2022/10/15 08:43:51;;;;;;;57.08;46.90;;;14.00;99.90;;;;;;7365983;19;20119;-49
2022/10/15 08:46:24;;;;;;;57.97;47.38;;;13.90;99.90;;;;;;7364431;19;20033;-42
2022/10/15 08:48:57;;;;;;;65.13;50.97;;;13.90;99.90;;;;;;7369399;19;20588;-45
2022/10/15 08:51:30;;;;;;;73.35;54.63;;;13.90;99.90;;;;;;7365246;19;20018;-42
2022/10/15 08:54:03;;;;;;;63.80;50.85;;;13.90;99.90;;;;;;7366388;19;20014;-44
2022/10/15 08:56:36;;;;;;;71.88;54.03;;;13.80;99.90;;;;;;7366760;19;20019;-42
2022/10/15 08:59:26;;;;;;;62.85;50.63;;;13.80;99.90;;;;;;7369609;19;20018;-41
2022/10/15 09:02:11;;;;;;;68.22;52.00;;;13.70;99.90;;;;;;7371413;19;20051;-42
2022/10/15 09:04:52;;;;;;;70.43;52.47;;;13.60;99.90;;;;;;7370821;19;20018;-41
2022/10/15 09:07:31;;;;;;;71.72;52.28;;;13.60;99.90;;;;;;7368832;19;20561;-43
2022/10/15 09:10:28;;;;;;;74.45;52.42;;;13.60;99.90;;;;;;7368006;19;20022;-42
2022/10/15 09:13:11;;;;;;;79.55;53.92;;;13.50;99.90;;;;;;7368172;19;20019;-41
2022/10/15 09:15:42;;;;;;;;;;;13.50;99.90;;;;;;7368474;19;20044;-44
2022/10/15 09:18:19;;;;;;;77.45;50.80;;;13.40;99.90;;;;;;7363654;19;19918;-43
2022/10/15 09:20:46;;;;;;;80.25;48.03;;;13.40;99.90;;;;;;7364855;19;20145;-43
2022/10/15 09:23:22;;;;;;;80.05;49.13;;;13.30;99.90;;;;;;7371127;19;20052;-42
2022/10/15 09:26:00;;;;;;;71.35;46.45;;;13.30;99.90;;;;;;7370690;19;20022;-44
2022/10/15 09:28:45;;;;;;;77.25;45.83;;;13.30;99.90;;;;;;7370534;19;20386;-46
2022/10/15 09:31:18;;;;;;;72.93;44.97;;;13.30;99.90;;;;;;7365470;19;20796;-42
2022/10/15 09:33:55;;;;;;;71.22;44.67;;;13.30;99.90;;;;;;7365060;19;20018;-42
2022/10/15 09:36:25;;;;;;;58.13;38.22;;;13.30;99.90;;;;;;7370581;19;20022;-43
2022/10/15 09:39:01;;;;;;;60.28;39.35;;;13.30;99.90;;;;;;7367580;19;20018;-42
2022/10/15 09:41:39;;;;;;;65.85;42.67;;;13.30;99.90;;;;;;7364909;19;20541;-45
2022/10/15 09:44:13;;;;;;;66.97;40.63;;;13.30;99.90;;;;;;7366010;19;20443;-45
2022/10/15 09:46:48;;;;;;;57.88;37.00;;;13.30;99.90;;;;;;7368615;19;20407;-43
2022/10/15 09:49:23;;;;;;;56.30;37.22;;;13.40;99.90;;;;;;7367021;19;20486;-46
2022/10/15 09:51:54;;;;;;;54.58;36.03;;;13.40;99.90;;;;;;7370487;19;21961;-43
2022/10/15 09:54:48;;;;;;;64.57;37.70;;;13.40;99.90;;;;;;7370917;19;20015;-53
2022/10/15 09:57:18;;;;;;;57.08;37.20;;;13.40;99.90;;;;;;7365387;19;20034;-52
2022/10/15 09:59:53;;;;;;;58.53;38.95;;;13.50;99.90;;;;;;7366907;19;20022;-51
2022/10/15 10:02:22;;;;;;;65.82;39.78;;;13.50;99.90;;;;;;7366133;19;21504;-45
2022/10/15 10:04:48;;;;;;;63.97;39.60;;;13.50;99.90;;;;;;7371082;19;20018;-51
2022/10/15 10:07:28;;;;;;;56.42;37.65;;;13.60;99.90;;;;;;7361829;19;20497;-52
2022/10/15 10:09:58;;;;;;;62.53;38.10;;;13.60;99.90;;;;;;7367226;19;20034;-52
2022/10/15 10:12:29;;;;;;;57.20;36.20;;;13.70;99.90;;;;;;7363847;19;20364;-49
2022/10/15 10:14:59;;;;;;;53.07;35.53;;;13.70;99.90;;;;;;7365517;19;20486;-42
2022/10/15 10:17:27;;;;;;;48.83;34.80;;;13.70;99.90;;;;;;7369609;19;20411;-42
2022/10/15 10:20:14;;;;;;;55.38;35.85;;;13.70;99.90;;;;;;7368942;19;20014;-42
2022/10/15 10:22:56;;;;;;;52.15;35.25;;;13.80;99.90;;;;;;7371632;19;20919;-43
2022/10/15 10:25:32;;;;;;;48.42;34.72;;;13.80;99.90;;;;;;7377852;19;20111;-43
2022/10/15 10:28:05;;;;;;;46.95;33.75;;;13.80;99.90;;;;;;7374511;19;20015;-50
2022/10/15 10:30:38;;;;;;;43.53;31.75;;;14.00;99.90;;;;;;7372764;19;20573;-51
2022/10/15 10:33:05;;;;;;;42.05;31.73;;;14.20;99.90;;;;;;7372526;19;20531;-50
2022/10/15 10:35:44;;;;;;;40.58;30.05;;;14.60;99.90;;;;;;7372492;19;20019;-51
2022/10/15 10:38:28;;;;;;;42.80;32.10;;;15.00;99.90;;;;;;7375130;19;21407;-43
2022/10/15 10:40:59;;;;;;;38.97;29.80;;;15.40;99.90;;;;;;7371757;19;20029;-43
2022/10/15 10:43:27;;;;;;;36.83;30.17;;;15.80;99.90;;;;;;7370322;19;20054;-42
2022/10/15 10:46:00;;;;;;;34.78;26.90;;;16.10;99.90;;;;;;7366921;19;20022;-44
2022/10/15 10:48:37;;;;;;;32.40;26.75;;;16.20;99.90;;;;;;7369090;19;20024;-52
2022/10/15 10:51:08;;;;;;;30.58;26.45;;;16.30;99.90;;;;;;7368727;19;20481;-44
2022/10/15 10:53:46;;;;;;;26.92;23.85;;;16.50;99.90;;;;;;7374059;19;20397;-48
2022/10/15 10:56:14;;;;;;;28.67;25.67;;;16.50;99.90;;;;;;7377096;19;20022;-43
2022/10/15 10:58:42;;;;;;;28.98;24.88;;;16.50;99.90;;;;;;7374361;19;20010;-45
2022/10/15 11:01:12;;;;;;;25.25;22.55;;;16.50;99.90;;;;;;7376106;19;20054;-44
2022/10/15 11:03:43;;;;;;;25.52;22.85;;;16.40;99.90;;;;;;7374434;19;20019;-42
2022/10/15 11:06:15;;;;;;;28.13;23.30;;;16.40;99.90;;;;;;7373377;19;20022;-44
2022/10/15 11:09:16;;;;;;;27.30;24.25;;;16.10;99.90;;;;;;7377577;19;20034;-44
2022/10/15 11:12:10;;;;;;;26.42;23.65;;;16.00;99.90;;;;;;7374052;19;20018;-45
2022/10/15 11:14:51;;;;;;;28.35;23.92;;;15.90;99.90;;;;;;7371948;19;20105;-45
2022/10/15 11:17:24;;;;;;;26.58;23.77;;;15.80;99.90;;;;;;7374353;19;20022;-47
2022/10/15 11:20:02;;;;;;;29.23;26.13;;;15.70;99.90;;;;;;7373189;19;20347;-45
2022/10/15 11:22:53;;;;;;;28.35;24.77;;;15.70;99.90;;;;;;7372434;19;20014;-45
2022/10/15 11:25:31;;;;;;;29.52;25.73;;;15.50;99.90;;;;;;7370998;19;20022;-44
2022/10/15 11:28:27;;;;;;;30.95;25.30;;;15.40;99.90;;;;;;7373945;19;20077;-45
2022/10/15 11:30:59;;;;;;;31.75;28.08;;;15.40;99.90;;;;;;7375248;19;20019;-46
2022/10/15 11:33:42;;;;;;;28.10;24.67;;;15.40;99.90;;;;;;7370797;19;20018;-45
2022/10/15 11:36:42;;;;;;;27.10;24.08;;;15.50;99.90;;;;;;7373228;19;20416;-43
2022/10/15 11:39:26;;;;;;;25.02;22.42;;;15.60;99.90;;;;;;7374114;19;20422;-44
2022/10/15 11:42:03;;;;;;;27.17;24.30;;;15.50;99.90;;;;;;7374085;19;20010;-43
2022/10/15 11:45:06;;;;;;;25.92;23.02;;;15.40;99.90;;;;;;7372274;19;20280;-44
2022/10/15 11:47:43;;;;;;;29.77;23.55;;;15.40;99.90;;;;;;7368675;19;20018;-43
2022/10/15 11:50:29;;;;;;;30.23;23.15;;;15.40;99.90;;;;;;7373596;19;20015;-42
2022/10/15 11:53:05;;;;;;;25.33;21.98;;;15.40;99.90;;;;;;7375090;19;21528;-45
2022/10/15 11:55:43;;;;;;;27.08;23.35;;;15.30;99.90;;;;;;7373257;19;20021;-44
2022/10/15 11:58:41;;;;;;;29.42;25.40;;;15.60;99.90;;;;;;7370737;19;20022;-45
2022/10/15 12:01:28;;;;;;;24.70;22.10;;;16.10;99.90;;;;;;7374928;19;20019;-43
2022/10/15 12:04:05;;;;;;;26.50;22.63;;;16.80;99.90;;;;;;7370906;19;20018;-46
2022/10/15 12:06:39;;;;;;;25.05;22.45;;;17.00;99.90;;;;;;7373634;19;20035;-44
2022/10/15 12:09:06;;;;;;;21.83;19.45;;;16.90;99.90;;;;;;7377077;19;20029;-44
2022/10/15 12:11:57;;;;;;;25.50;21.95;;;16.60;99.90;;;;;;7373444;19;20471;-44
2022/10/15 12:14:33;;;;;;;24.15;21.02;;;16.40;99.90;;;;;;7370469;19;20019;-44
2022/10/15 12:17:05;;;;;;;24.58;20.70;;;16.30;99.90;;;;;;7370956;19;20018;-43
2022/10/15 12:19:53;;;;;;;24.73;22.02;;;16.20;99.90;;;;;;7369895;19;20785;-51
2022/10/15 12:22:39;;;;;;;24.42;21.73;;;16.10;99.90;;;;;;7371688;19;20014;-53
2022/10/15 12:25:26;;;;;;;24.58;21.98;;;16.10;99.90;;;;;;7369626;19;20563;-49
2022/10/15 12:28:04;;;;;;;25.20;21.75;;;16.00;99.90;;;;;;7366753;19;20475;-50
2022/10/15 12:30:36;;;;;;;24.92;22.23;;;16.00;99.90;;;;;;7371590;19;20047;-51
2022/10/15 12:33:21;;;;;;;28.05;22.60;;;15.90;99.90;;;;;;7367883;19;20021;-50
2022/10/15 12:35:57;;;;;;;30.13;25.15;;;15.80;99.90;;;;;;7369668;19;20018;-51
2022/10/15 12:38:30;;;;;;;27.38;23.02;;;15.90;99.90;;;;;;7366471;19;20592;-52
2022/10/15 12:41:04;;;;;;;29.42;24.50;;;15.80;99.90;;;;;;7369065;19;20634;-49
2022/10/15 12:43:35;;;;;;;26.70;23.67;;;15.80;99.90;;;;;;7371377;19;20019;-50
2022/10/15 12:46:05;;;;;;;31.63;27.42;;;15.80;99.90;;;;;;7372650;19;20374;-56
2022/10/15 12:48:36;;;;;;;30.38;24.85;;;15.60;99.90;;;;;;7369507;19;20085;-53
2022/10/15 12:51:20;;;;;;;32.92;25.88;;;15.70;99.90;;;;;;7371474;19;20116;-50